createdAt,value
2017-12-03T00:00:24.040Z,2.72
2017-12-03T00:00:50.152Z,2.74
2017-12-03T00:01:16.296Z,2.69
2017-12-03T00:01:42.420Z,2.69
2017-12-03T00:02:08.535Z,2.67
2017-12-03T00:02:34.676Z,2.65
2017-12-03T00:03:00.791Z,2.75
2017-12-03T00:03:26.913Z,2.83
2017-12-03T00:03:53.027Z,2.82
2017-12-03T00:04:19.142Z,2.74
2017-12-03T00:04:45.279Z,2.85
2017-12-03T00:05:11.401Z,2.77
2017-12-03T00:05:37.525Z,2.65
2017-12-03T00:06:03.644Z,2.68
2017-12-03T00:06:29.769Z,2.69
2017-12-03T00:06:55.884Z,2.72
2017-12-03T00:07:22.001Z,2.68
2017-12-03T00:07:48.118Z,2.71
2017-12-03T00:08:14.237Z,2.72
2017-12-03T00:08:40.354Z,2.62
2017-12-03T00:09:06.487Z,2.71
2017-12-03T00:09:32.611Z,2.69
2017-12-03T00:09:58.730Z,2.72
2017-12-03T00:10:24.846Z,2.86
2017-12-03T00:10:50.970Z,2.83
2017-12-03T00:11:17.106Z,2.8
2017-12-03T00:11:43.227Z,2.77
2017-12-03T00:12:09.349Z,2.69
2017-12-03T00:12:35.469Z,2.64
2017-12-03T00:13:01.587Z,2.71
2017-12-03T00:13:27.706Z,2.71
2017-12-03T00:13:53.853Z,2.68
2017-12-03T00:14:19.944Z,2.53
2017-12-03T00:14:46.060Z,2.62
2017-12-03T00:15:12.180Z,2.69
2017-12-03T00:15:38.303Z,2.65
2017-12-03T00:16:04.423Z,2.68
2017-12-03T00:16:30.536Z,2.57
2017-12-03T00:16:56.659Z,2.61
2017-12-03T00:17:22.779Z,2.65
2017-12-03T00:17:48.892Z,2.68
2017-12-03T00:18:15.017Z,2.69
2017-12-03T00:18:41.130Z,2.69
2017-12-03T00:19:07.258Z,2.61
2017-12-03T00:19:33.387Z,2.44
2017-12-03T00:19:59.504Z,2.44
2017-12-03T00:20:25.627Z,2.56
2017-12-03T00:20:51.742Z,2.38
2017-12-03T00:21:17.865Z,2.43
2017-12-03T00:21:43.986Z,2.36
2017-12-03T00:22:10.100Z,2.44
2017-12-03T00:22:36.237Z,2.49
2017-12-03T00:23:02.359Z,2.6
2017-12-03T00:23:28.479Z,2.6
2017-12-03T00:23:54.597Z,2.5
2017-12-03T00:24:20.712Z,2.65
2017-12-03T00:24:46.837Z,2.64
2017-12-03T00:25:12.953Z,2.56
2017-12-03T00:25:39.074Z,2.44
2017-12-03T00:26:05.194Z,2.56
2017-12-03T00:26:31.307Z,2.57
2017-12-03T00:26:57.424Z,2.68
2017-12-03T00:27:23.546Z,2.61
2017-12-03T00:27:49.667Z,2.65
2017-12-03T00:28:15.794Z,2.54
2017-12-03T00:28:41.915Z,2.56
2017-12-03T00:29:08.052Z,2.47
2017-12-03T00:29:34.222Z,2.54
2017-12-03T00:30:00.287Z,2.68
2017-12-03T00:30:26.402Z,2.71
2017-12-03T00:30:52.523Z,2.74
2017-12-03T00:31:18.638Z,2.67
2017-12-03T00:31:44.781Z,2.74
2017-12-03T00:32:10.905Z,2.61
2017-12-03T00:32:37.015Z,2.69
2017-12-03T00:33:03.141Z,2.72
2017-12-03T00:33:29.262Z,2.72
2017-12-03T00:33:55.379Z,2.64
2017-12-03T00:34:21.501Z,2.68
2017-12-03T00:34:47.616Z,2.74
2017-12-03T00:35:13.730Z,2.77
2017-12-03T00:35:39.851Z,2.72
2017-12-03T00:36:05.973Z,2.82
2017-12-03T00:36:32.094Z,2.79
2017-12-03T00:36:58.207Z,2.71
2017-12-03T00:37:24.329Z,2.75
2017-12-03T00:37:50.445Z,2.77
2017-12-03T00:38:16.564Z,2.71
2017-12-03T00:38:42.688Z,2.61
2017-12-03T00:39:08.801Z,2.65
2017-12-03T00:39:34.920Z,2.5
2017-12-03T00:40:01.044Z,2.54
2017-12-03T00:40:27.158Z,2.53
2017-12-03T00:40:53.302Z,2.6
2017-12-03T00:41:19.416Z,2.5
2017-12-03T00:41:45.540Z,2.53
2017-12-03T00:42:11.655Z,2.6
2017-12-03T00:42:37.821Z,2.54
2017-12-03T00:43:03.892Z,2.44
2017-12-03T00:43:30.010Z,2.49
2017-12-03T00:43:56.130Z,2.54
2017-12-03T00:44:22.248Z,2.53
2017-12-03T00:44:48.374Z,2.61
2017-12-03T00:45:14.486Z,2.53
2017-12-03T00:45:40.630Z,2.57
2017-12-03T00:46:06.752Z,2.6
2017-12-03T00:46:32.888Z,2.54
2017-12-03T00:46:59.012Z,2.67
2017-12-03T00:47:25.135Z,2.61
2017-12-03T00:47:51.247Z,2.54
2017-12-03T00:48:17.373Z,2.53
2017-12-03T00:48:43.484Z,2.62
2017-12-03T00:49:09.601Z,2.56
2017-12-03T00:49:35.720Z,2.53
2017-12-03T00:50:01.842Z,2.64
2017-12-03T00:50:27.980Z,2.62
2017-12-03T00:50:54.104Z,2.62
2017-12-03T00:51:20.215Z,2.68
2017-12-03T00:51:46.339Z,2.56
2017-12-03T00:52:12.451Z,2.51
2017-12-03T00:52:38.574Z,2.49
2017-12-03T00:53:04.700Z,2.57
2017-12-03T00:53:30.819Z,2.5
2017-12-03T00:53:56.941Z,2.54
2017-12-03T00:54:23.049Z,2.54
2017-12-03T00:54:49.172Z,2.56
2017-12-03T00:55:15.304Z,2.42
2017-12-03T00:55:41.427Z,2.5
2017-12-03T00:56:07.545Z,2.6
2017-12-03T00:56:33.661Z,2.49
2017-12-03T00:56:59.787Z,2.47
2017-12-03T00:57:25.907Z,2.44
2017-12-03T00:57:52.022Z,2.43
2017-12-03T00:58:18.134Z,2.51
2017-12-03T00:58:44.259Z,2.46
2017-12-03T00:59:10.373Z,2.28
2017-12-03T00:59:36.521Z,2.35
2017-12-03T01:00:02.642Z,2.31
2017-12-03T01:00:28.756Z,2.33
2017-12-03T01:00:54.878Z,2.47
2017-12-03T01:01:20.999Z,2.53
2017-12-03T01:01:47.120Z,2.47
2017-12-03T01:02:13.235Z,2.44
2017-12-03T01:02:39.349Z,2.43
2017-12-03T01:03:05.474Z,2.5
2017-12-03T01:03:31.590Z,2.57
2017-12-03T01:03:57.708Z,2.5
2017-12-03T01:04:23.823Z,2.43
2017-12-03T01:04:49.942Z,2.47
2017-12-03T01:05:16.086Z,2.46
2017-12-03T01:05:42.200Z,2.46
2017-12-03T01:06:08.323Z,2.5
2017-12-03T01:06:34.661Z,2.33
2017-12-03T01:07:00.779Z,2.36
2017-12-03T01:07:26.901Z,2.35
2017-12-03T01:07:53.018Z,2.33
2017-12-03T01:08:19.141Z,2.46
2017-12-03T01:08:45.254Z,2.44
2017-12-03T01:09:11.376Z,2.53
2017-12-03T01:09:37.495Z,2.44
2017-12-03T01:10:03.617Z,2.36
2017-12-03T01:10:29.742Z,2.35
2017-12-03T01:10:55.856Z,2.42
2017-12-03T01:11:21.977Z,2.39
2017-12-03T01:11:48.116Z,2.47
2017-12-03T01:12:14.229Z,2.39
2017-12-03T01:12:40.352Z,2.36
2017-12-03T01:13:06.467Z,2.38
2017-12-03T01:13:32.581Z,2.33
2017-12-03T01:13:58.706Z,2.42
2017-12-03T01:14:24.816Z,2.35
2017-12-03T01:14:50.937Z,2.38
2017-12-03T01:15:17.073Z,2.35
2017-12-03T01:15:43.221Z,2.29
2017-12-03T01:16:09.338Z,2.33
2017-12-03T01:16:35.451Z,2.28
2017-12-03T01:17:01.575Z,2.36
2017-12-03T01:17:27.695Z,2.28
2017-12-03T01:17:53.836Z,2.25
2017-12-03T01:18:19.959Z,2.29
2017-12-03T01:18:46.073Z,2.2
2017-12-03T01:19:12.187Z,2.26
2017-12-03T01:19:38.310Z,2.14
2017-12-03T01:20:04.430Z,2.14
2017-12-03T01:20:30.541Z,2.1
2017-12-03T01:20:56.659Z,2.18
2017-12-03T01:21:22.780Z,2.25
2017-12-03T01:21:48.898Z,2.24
2017-12-03T01:22:15.023Z,2.15
2017-12-03T01:22:41.135Z,2.31
2017-12-03T01:23:07.257Z,2.33
2017-12-03T01:23:33.371Z,2.2
2017-12-03T01:23:59.494Z,2.28
2017-12-03T01:24:25.616Z,2.29
2017-12-03T01:24:51.737Z,2.24
2017-12-03T01:25:17.852Z,2.35
2017-12-03T01:25:43.988Z,2.33
2017-12-03T01:26:10.114Z,2.31
2017-12-03T01:26:36.228Z,2.42
2017-12-03T01:27:02.346Z,2.44
2017-12-03T01:27:28.470Z,2.44
2017-12-03T01:27:54.583Z,2.42
2017-12-03T01:28:20.711Z,2.43
2017-12-03T01:28:46.825Z,2.46
2017-12-03T01:29:12.947Z,2.53
2017-12-03T01:29:39.070Z,2.65
2017-12-03T01:30:05.183Z,2.5
2017-12-03T01:30:31.301Z,2.46
2017-12-03T01:30:57.427Z,2.56
2017-12-03T01:31:23.554Z,2.42
2017-12-03T01:31:49.675Z,2.46
2017-12-03T01:32:15.821Z,2.36
2017-12-03T01:32:41.936Z,2.46
2017-12-03T01:33:08.049Z,2.51
2017-12-03T01:33:34.172Z,2.43
2017-12-03T01:34:00.290Z,2.42
2017-12-03T01:34:26.408Z,2.43
2017-12-03T01:34:52.522Z,2.44
2017-12-03T01:35:18.652Z,2.38
2017-12-03T01:35:44.765Z,2.36
2017-12-03T01:36:10.905Z,2.42
2017-12-03T01:36:37.027Z,2.44
2017-12-03T01:37:03.146Z,2.47
2017-12-03T01:37:29.268Z,2.43
2017-12-03T01:37:55.392Z,2.38
2017-12-03T01:38:21.501Z,2.35
2017-12-03T01:38:47.621Z,2.36
2017-12-03T01:39:13.744Z,2.46
2017-12-03T01:39:39.865Z,2.44
2017-12-03T01:40:05.983Z,2.42
2017-12-03T01:40:32.095Z,2.5
2017-12-03T01:40:58.212Z,2.44
2017-12-03T01:41:24.332Z,2.42
2017-12-03T01:41:50.450Z,2.36
2017-12-03T01:42:16.574Z,2.35
2017-12-03T01:42:42.710Z,2.38
2017-12-03T01:43:08.831Z,2.46
2017-12-03T01:43:34.957Z,2.36
2017-12-03T01:44:01.071Z,2.35
2017-12-03T01:44:27.210Z,2.47
2017-12-03T01:44:53.339Z,2.38
2017-12-03T01:45:19.448Z,2.29
2017-12-03T01:45:45.567Z,2.31
2017-12-03T01:46:11.684Z,2.29
2017-12-03T01:46:37.809Z,2.32
2017-12-03T01:47:03.944Z,2.22
2017-12-03T01:47:30.047Z,2.1
2017-12-03T01:47:56.181Z,2.13
2017-12-03T01:48:22.305Z,2.15
2017-12-03T01:48:48.421Z,2.18
2017-12-03T01:49:14.541Z,2.29
2017-12-03T01:49:40.663Z,2.35
2017-12-03T01:50:06.778Z,2.14
2017-12-03T01:50:32.894Z,2.18
2017-12-03T01:50:59.017Z,2.26
2017-12-03T01:51:25.138Z,2.25
2017-12-03T01:51:51.251Z,2.2
2017-12-03T01:52:17.373Z,2.28
2017-12-03T01:52:43.487Z,2.18
2017-12-03T01:53:09.604Z,2.17
2017-12-03T01:53:35.728Z,2.1
2017-12-03T01:54:01.843Z,2.17
2017-12-03T01:54:27.966Z,2.15
2017-12-03T01:54:54.090Z,2.11
2017-12-03T01:55:20.202Z,2.32
2017-12-03T01:55:46.320Z,2.13
2017-12-03T01:56:12.446Z,2.24
2017-12-03T01:56:38.567Z,2.18
2017-12-03T01:57:04.681Z,2.25
2017-12-03T01:57:30.804Z,2.2
2017-12-03T01:57:56.918Z,2.17
2017-12-03T01:58:23.059Z,2.11
2017-12-03T01:58:49.175Z,2.11
2017-12-03T01:59:15.339Z,2.2
2017-12-03T01:59:41.413Z,2.17
2017-12-03T02:00:07.548Z,2.28
2017-12-03T02:00:33.672Z,2.24
2017-12-03T02:00:59.789Z,2.13
2017-12-03T02:01:25.914Z,2.2
2017-12-03T02:01:52.030Z,2.2
2017-12-03T02:02:18.154Z,2.15
2017-12-03T02:02:44.264Z,2.14
2017-12-03T02:03:10.389Z,2.14
2017-12-03T02:03:36.507Z,2.24
2017-12-03T02:04:02.621Z,2.18
2017-12-03T02:04:28.743Z,2.33
2017-12-03T02:04:54.856Z,2.2
2017-12-03T02:05:20.973Z,2.08
2017-12-03T02:05:47.088Z,2.13
2017-12-03T02:06:13.205Z,2.11
2017-12-03T02:06:39.351Z,2.13
2017-12-03T02:07:05.471Z,2.11
2017-12-03T02:07:31.589Z,2.2
2017-12-03T02:07:57.703Z,2.28
2017-12-03T02:08:23.830Z,2.2
2017-12-03T02:08:49.965Z,2.28
2017-12-03T02:09:16.112Z,2.28
2017-12-03T02:09:42.237Z,2.26
2017-12-03T02:10:08.358Z,2.32
2017-12-03T02:10:34.473Z,2.39
2017-12-03T02:11:00.594Z,2.33
2017-12-03T02:11:26.711Z,2.29
2017-12-03T02:11:52.824Z,2.31
2017-12-03T02:12:18.945Z,2.26
2017-12-03T02:12:45.063Z,2.42
2017-12-03T02:13:11.184Z,2.35
2017-12-03T02:13:37.326Z,2.33
2017-12-03T02:14:03.447Z,2.38
2017-12-03T02:14:29.561Z,2.31
2017-12-03T02:14:55.681Z,2.31
2017-12-03T02:15:21.807Z,2.2
2017-12-03T02:15:47.921Z,2.28
2017-12-03T02:16:14.066Z,2.18
2017-12-03T02:16:40.177Z,2.33
2017-12-03T02:17:06.299Z,2.25
2017-12-03T02:17:32.421Z,2.31
2017-12-03T02:17:58.533Z,2.28
2017-12-03T02:18:24.656Z,2.31
2017-12-03T02:18:50.773Z,2.39
2017-12-03T02:19:16.888Z,2.33
2017-12-03T02:19:43.011Z,2.32
2017-12-03T02:20:09.126Z,2.31
2017-12-03T02:20:35.251Z,2.29
2017-12-03T02:21:01.375Z,2.39
2017-12-03T02:21:27.508Z,2.35
2017-12-03T02:21:53.626Z,2.32
2017-12-03T02:22:19.748Z,2.32
2017-12-03T02:22:45.868Z,2.35
2017-12-03T02:23:11.982Z,2.43
2017-12-03T02:23:38.106Z,2.39
2017-12-03T02:24:04.221Z,2.43
2017-12-03T02:24:30.336Z,2.39
2017-12-03T02:24:56.457Z,2.46
2017-12-03T02:25:22.571Z,2.42
2017-12-03T02:25:48.715Z,2.36
2017-12-03T02:26:14.851Z,2.39
2017-12-03T02:26:40.968Z,2.42
2017-12-03T02:27:07.086Z,2.33
2017-12-03T02:27:33.206Z,2.38
2017-12-03T02:27:59.342Z,2.42
2017-12-03T02:28:25.459Z,2.42
2017-12-03T02:28:51.599Z,2.43
2017-12-03T02:29:17.716Z,2.51
2017-12-03T02:29:43.836Z,2.49
2017-12-03T02:30:09.960Z,2.6
2017-12-03T02:30:36.069Z,2.62
2017-12-03T02:31:02.185Z,2.51
2017-12-03T02:31:28.308Z,2.62
2017-12-03T02:31:54.419Z,2.5
2017-12-03T02:32:20.540Z,2.51
2017-12-03T02:32:46.671Z,2.53
2017-12-03T02:33:12.779Z,2.47
2017-12-03T02:33:38.925Z,2.5
2017-12-03T02:34:05.055Z,2.44
2017-12-03T02:34:31.178Z,2.49
2017-12-03T02:34:57.325Z,2.5
2017-12-03T02:35:23.443Z,2.56
2017-12-03T02:35:49.566Z,2.49
2017-12-03T02:36:15.674Z,2.51
2017-12-03T02:36:41.798Z,2.44
2017-12-03T02:37:07.909Z,2.44
2017-12-03T02:37:34.052Z,2.46
2017-12-03T02:38:00.173Z,2.5
2017-12-03T02:38:26.283Z,2.5
2017-12-03T02:38:52.405Z,2.61
2017-12-03T02:39:18.519Z,2.49
2017-12-03T02:39:44.666Z,2.51
2017-12-03T02:40:10.809Z,2.43
2017-12-03T02:40:36.924Z,2.43
2017-12-03T02:41:03.039Z,2.39
2017-12-03T02:41:29.166Z,2.47
2017-12-03T02:41:55.298Z,2.5
2017-12-03T02:42:21.421Z,2.42
2017-12-03T02:42:47.544Z,2.44
2017-12-03T02:43:13.660Z,2.44
2017-12-03T02:43:39.780Z,2.44
2017-12-03T02:44:05.906Z,2.43
2017-12-03T02:44:32.027Z,2.5
2017-12-03T02:44:58.142Z,2.46
2017-12-03T02:45:24.262Z,2.43
2017-12-03T02:45:50.383Z,2.44
2017-12-03T02:46:16.497Z,2.39
2017-12-03T02:46:42.647Z,2.47
2017-12-03T02:47:08.778Z,2.35
2017-12-03T02:47:34.899Z,2.38
2017-12-03T02:48:01.020Z,2.35
2017-12-03T02:48:27.137Z,2.42
2017-12-03T02:48:53.258Z,2.36
2017-12-03T02:49:19.372Z,2.33
2017-12-03T02:49:45.488Z,2.42
2017-12-03T02:50:11.600Z,2.43
2017-12-03T02:50:37.723Z,2.33
2017-12-03T02:51:03.840Z,2.38
2017-12-03T02:51:29.958Z,2.49
2017-12-03T02:51:56.107Z,2.36
2017-12-03T02:52:22.228Z,2.36
2017-12-03T02:52:48.367Z,2.38
2017-12-03T02:53:14.491Z,2.35
2017-12-03T02:53:40.611Z,2.43
2017-12-03T02:54:06.728Z,2.36
2017-12-03T02:54:32.852Z,2.39
2017-12-03T02:54:58.963Z,2.36
2017-12-03T02:55:25.102Z,2.35
2017-12-03T02:55:51.215Z,2.46
2017-12-03T02:56:17.342Z,2.31
2017-12-03T02:56:43.458Z,2.32
2017-12-03T02:57:09.576Z,2.29
2017-12-03T02:57:35.718Z,2.35
2017-12-03T02:58:01.858Z,2.29
2017-12-03T02:58:27.982Z,2.31
2017-12-03T02:58:54.101Z,2.28
2017-12-03T02:59:20.222Z,2.17
2017-12-03T02:59:46.340Z,2.29
2017-12-03T03:00:12.460Z,2.29
2017-12-03T03:00:38.584Z,2.31
2017-12-03T03:01:04.699Z,2.31
2017-12-03T03:01:30.823Z,2.31
2017-12-03T03:01:56.943Z,2.28
2017-12-03T03:02:23.059Z,2.28
2017-12-03T03:02:49.178Z,2.35
2017-12-03T03:03:15.296Z,2.38
2017-12-03T03:03:41.415Z,2.28
2017-12-03T03:04:07.539Z,2.33
2017-12-03T03:04:33.649Z,2.35
2017-12-03T03:04:59.764Z,2.33
2017-12-03T03:05:25.883Z,2.33
2017-12-03T03:05:52.009Z,2.29
2017-12-03T03:06:18.130Z,2.38
2017-12-03T03:06:44.246Z,2.33
2017-12-03T03:07:10.369Z,2.32
2017-12-03T03:07:36.484Z,2.25
2017-12-03T03:08:02.604Z,2.31
2017-12-03T03:08:28.722Z,2.33
2017-12-03T03:08:54.837Z,2.29
2017-12-03T03:09:20.958Z,2.31
2017-12-03T03:09:47.098Z,2.31
2017-12-03T03:10:13.231Z,2.33
2017-12-03T03:10:39.348Z,2.35
2017-12-03T03:11:05.478Z,2.29
2017-12-03T03:11:31.587Z,2.29
2017-12-03T03:11:57.703Z,2.33
2017-12-03T03:12:23.825Z,2.29
2017-12-03T03:12:49.948Z,2.28
2017-12-03T03:13:16.071Z,2.33
2017-12-03T03:13:42.189Z,2.29
2017-12-03T03:14:08.308Z,2.33
2017-12-03T03:14:34.422Z,2.29
2017-12-03T03:15:00.538Z,2.31
2017-12-03T03:15:26.658Z,2.32
2017-12-03T03:15:52.783Z,2.31
2017-12-03T03:16:18.893Z,2.44
2017-12-03T03:16:45.017Z,2.42
2017-12-03T03:17:11.136Z,2.33
2017-12-03T03:17:37.337Z,2.38
2017-12-03T03:18:03.408Z,2.33
2017-12-03T03:18:29.533Z,2.33
2017-12-03T03:18:55.674Z,2.31
2017-12-03T03:19:21.810Z,2.26
2017-12-03T03:19:47.929Z,2.29
2017-12-03T03:20:14.066Z,2.29
2017-12-03T03:20:40.182Z,2.31
2017-12-03T03:21:06.305Z,2.31
2017-12-03T03:21:32.420Z,2.24
2017-12-03T03:21:58.548Z,2.26
2017-12-03T03:22:24.659Z,2.24
2017-12-03T03:22:50.779Z,2.32
2017-12-03T03:23:16.900Z,2.25
2017-12-03T03:23:43.014Z,2.28
2017-12-03T03:24:09.142Z,2.32
2017-12-03T03:24:35.254Z,2.22
2017-12-03T03:25:01.377Z,2.28
2017-12-03T03:25:27.501Z,2.31
2017-12-03T03:25:53.612Z,2.33
2017-12-03T03:26:19.736Z,2.33
2017-12-03T03:26:45.852Z,2.28
2017-12-03T03:27:11.976Z,2.32
2017-12-03T03:27:38.088Z,2.29
2017-12-03T03:28:04.216Z,2.31
2017-12-03T03:28:30.393Z,2.33
2017-12-03T03:28:56.525Z,2.28
2017-12-03T03:29:22.672Z,2.33
2017-12-03T03:29:48.807Z,2.38
2017-12-03T03:30:14.927Z,2.29
2017-12-03T03:30:41.097Z,2.43
2017-12-03T03:31:07.225Z,2.35
2017-12-03T03:31:33.347Z,2.29
2017-12-03T03:31:59.462Z,2.35
2017-12-03T03:32:25.582Z,2.31
2017-12-03T03:32:51.737Z,2.35
2017-12-03T03:33:17.853Z,2.32
2017-12-03T03:33:43.982Z,2.38
2017-12-03T03:34:10.097Z,2.31
2017-12-03T03:34:36.240Z,2.33
2017-12-03T03:35:02.357Z,2.28
2017-12-03T03:35:28.486Z,2.32
2017-12-03T03:35:54.598Z,2.31
2017-12-03T03:36:20.718Z,2.26
2017-12-03T03:36:46.849Z,2.26
2017-12-03T03:37:12.984Z,2.24
2017-12-03T03:37:39.094Z,2.18
2017-12-03T03:38:05.205Z,2.2
2017-12-03T03:38:31.355Z,2.33
2017-12-03T03:38:57.468Z,2.28
2017-12-03T03:39:23.581Z,2.29
2017-12-03T03:39:49.698Z,2.32
2017-12-03T03:40:15.830Z,2.32
2017-12-03T03:40:41.945Z,2.2
2017-12-03T03:41:08.067Z,2.1
2017-12-03T03:41:34.190Z,2.22
2017-12-03T03:42:00.310Z,2.13
2017-12-03T03:42:26.421Z,2.17
2017-12-03T03:42:52.549Z,2.15
2017-12-03T03:43:18.662Z,2.18
2017-12-03T03:43:44.790Z,2.32
2017-12-03T03:44:10.913Z,2.33
2017-12-03T03:44:37.055Z,2.2
2017-12-03T03:45:03.198Z,2.18
2017-12-03T03:45:29.324Z,2.17
2017-12-03T03:45:55.438Z,2.13
2017-12-03T03:46:21.556Z,2.13
2017-12-03T03:46:47.679Z,2.24
2017-12-03T03:47:13.793Z,2.32
2017-12-03T03:47:39.917Z,2.2
2017-12-03T03:48:06.032Z,2.24
2017-12-03T03:48:32.175Z,2.25
2017-12-03T03:48:58.301Z,2.26
2017-12-03T03:49:24.416Z,2.31
2017-12-03T03:49:50.536Z,2.32
2017-12-03T03:50:16.678Z,2.42
2017-12-03T03:50:42.804Z,2.29
2017-12-03T03:51:08.921Z,2.26
2017-12-03T03:51:35.043Z,2.28
2017-12-03T03:52:01.164Z,2.38
2017-12-03T03:52:27.282Z,2.33
2017-12-03T03:52:53.407Z,2.33
2017-12-03T03:53:19.530Z,2.31
2017-12-03T03:53:45.642Z,2.32
2017-12-03T03:54:11.785Z,2.31
2017-12-03T03:54:37.908Z,2.38
2017-12-03T03:55:04.048Z,2.35
2017-12-03T03:55:30.176Z,2.42
2017-12-03T03:55:56.317Z,2.36
2017-12-03T03:56:22.452Z,2.38
2017-12-03T03:56:48.574Z,2.36
2017-12-03T03:57:14.690Z,2.42
2017-12-03T03:57:40.806Z,2.29
2017-12-03T03:58:06.927Z,2.28
2017-12-03T03:58:33.046Z,2.26
2017-12-03T03:58:59.160Z,2.36
2017-12-03T03:59:25.285Z,2.26
2017-12-03T03:59:51.402Z,2.29
2017-12-03T04:00:17.530Z,2.28
2017-12-03T04:00:43.671Z,2.29
2017-12-03T04:01:09.765Z,2.28
2017-12-03T04:01:35.891Z,2.33
2017-12-03T04:02:02.013Z,2.43
2017-12-03T04:02:28.131Z,2.49
2017-12-03T04:02:54.256Z,2.46
2017-12-03T04:03:20.376Z,2.39
2017-12-03T04:03:46.507Z,2.44
2017-12-03T04:04:12.631Z,2.51
2017-12-03T04:04:38.751Z,2.43
2017-12-03T04:05:04.891Z,2.43
2017-12-03T04:05:31.036Z,2.49
2017-12-03T04:05:57.148Z,2.43
2017-12-03T04:06:23.264Z,2.33
2017-12-03T04:06:49.391Z,2.33
2017-12-03T04:07:15.507Z,2.38
2017-12-03T04:07:41.626Z,2.46
2017-12-03T04:08:07.739Z,2.38
2017-12-03T04:08:33.865Z,2.43
2017-12-03T04:08:59.977Z,2.35
2017-12-03T04:09:26.122Z,2.42
2017-12-03T04:09:52.243Z,2.46
2017-12-03T04:10:18.358Z,2.44
2017-12-03T04:10:44.503Z,2.38
2017-12-03T04:11:10.619Z,2.39
2017-12-03T04:11:36.758Z,2.42
2017-12-03T04:12:02.902Z,2.43
2017-12-03T04:12:29.019Z,2.39
2017-12-03T04:12:55.156Z,2.28
2017-12-03T04:13:21.275Z,2.32
2017-12-03T04:13:47.400Z,2.42
2017-12-03T04:14:13.513Z,2.46
2017-12-03T04:14:39.639Z,2.33
2017-12-03T04:15:05.759Z,2.33
2017-12-03T04:15:31.873Z,2.36
2017-12-03T04:15:58.022Z,2.44
2017-12-03T04:16:24.157Z,2.5
2017-12-03T04:16:50.270Z,2.56
2017-12-03T04:17:16.398Z,2.54
2017-12-03T04:17:42.511Z,2.44
2017-12-03T04:18:08.658Z,2.43
2017-12-03T04:18:34.778Z,2.31
2017-12-03T04:19:00.895Z,2.28
2017-12-03T04:19:27.009Z,2.33
2017-12-03T04:19:53.136Z,2.42
2017-12-03T04:20:19.257Z,2.39
2017-12-03T04:20:45.370Z,2.42
2017-12-03T04:21:11.519Z,2.43
2017-12-03T04:21:37.634Z,2.36
2017-12-03T04:22:03.763Z,2.43
2017-12-03T04:22:29.878Z,2.44
2017-12-03T04:22:56.018Z,2.47
2017-12-03T04:23:22.138Z,2.36
2017-12-03T04:23:48.271Z,2.35
2017-12-03T04:24:14.382Z,2.49
2017-12-03T04:24:40.499Z,2.44
2017-12-03T04:25:06.614Z,2.44
2017-12-03T04:25:32.733Z,2.44
2017-12-03T04:25:58.860Z,2.32
2017-12-03T04:26:24.984Z,2.42
2017-12-03T04:26:51.101Z,2.46
2017-12-03T04:27:17.216Z,2.43
2017-12-03T04:27:43.364Z,2.49
2017-12-03T04:28:09.480Z,2.36
2017-12-03T04:28:35.602Z,2.42
2017-12-03T04:29:01.720Z,2.49
2017-12-03T04:29:27.838Z,2.44
2017-12-03T04:29:53.963Z,2.39
2017-12-03T04:30:20.079Z,2.42
2017-12-03T04:30:46.199Z,2.36
2017-12-03T04:31:12.322Z,2.38
2017-12-03T04:31:38.436Z,2.42
2017-12-03T04:32:04.563Z,2.36
2017-12-03T04:32:30.672Z,2.38
2017-12-03T04:32:56.796Z,2.38
2017-12-03T04:33:22.913Z,2.35
2017-12-03T04:33:49.036Z,2.36
2017-12-03T04:34:15.155Z,2.38
2017-12-03T04:34:41.269Z,2.31
2017-12-03T04:35:07.412Z,2.28
2017-12-03T04:35:33.525Z,2.29
2017-12-03T04:35:59.651Z,2.38
2017-12-03T04:36:25.769Z,2.36
2017-12-03T04:36:51.888Z,2.36
2017-12-03T04:37:18.004Z,2.43
2017-12-03T04:37:44.120Z,2.46
2017-12-03T04:38:10.242Z,2.38
2017-12-03T04:38:36.367Z,2.43
2017-12-03T04:39:02.480Z,2.57
2017-12-03T04:39:28.594Z,2.61
2017-12-03T04:39:54.718Z,2.49
2017-12-03T04:40:20.837Z,2.46
2017-12-03T04:40:46.974Z,2.39
2017-12-03T04:41:13.110Z,2.47
2017-12-03T04:41:39.238Z,2.47
2017-12-03T04:42:05.349Z,2.39
2017-12-03T04:42:31.470Z,2.5
2017-12-03T04:42:57.587Z,2.42
2017-12-03T04:43:23.708Z,2.46
2017-12-03T04:43:49.846Z,2.43
2017-12-03T04:44:15.981Z,2.44
2017-12-03T04:44:42.094Z,2.32
2017-12-03T04:45:08.219Z,2.38
2017-12-03T04:45:34.341Z,2.35
2017-12-03T04:46:00.464Z,2.46
2017-12-03T04:46:26.585Z,2.43
2017-12-03T04:46:52.724Z,2.42
2017-12-03T04:47:18.850Z,2.53
2017-12-03T04:47:44.968Z,2.39
2017-12-03T04:48:11.098Z,2.39
2017-12-03T04:48:37.226Z,2.39
2017-12-03T04:49:03.340Z,2.39
2017-12-03T04:49:29.464Z,2.35
2017-12-03T04:49:55.601Z,2.39
2017-12-03T04:50:21.721Z,2.42
2017-12-03T04:50:47.837Z,2.39
2017-12-03T04:51:13.955Z,2.33
2017-12-03T04:51:40.070Z,2.36
2017-12-03T04:52:06.192Z,2.43
2017-12-03T04:52:32.316Z,2.36
2017-12-03T04:52:58.428Z,2.39
2017-12-03T04:53:24.545Z,2.36
2017-12-03T04:53:50.686Z,2.42
2017-12-03T04:54:16.812Z,2.36
2017-12-03T04:54:42.930Z,2.33
2017-12-03T04:55:09.049Z,2.43
2017-12-03T04:55:35.170Z,2.46
2017-12-03T04:56:01.296Z,2.51
2017-12-03T04:56:27.409Z,2.47
2017-12-03T04:56:53.538Z,2.38
2017-12-03T04:57:19.660Z,2.43
2017-12-03T04:57:45.800Z,2.44
2017-12-03T04:58:11.914Z,2.49
2017-12-03T04:58:38.041Z,2.44
2017-12-03T04:59:04.155Z,2.51
2017-12-03T04:59:30.272Z,2.38
2017-12-03T04:59:56.395Z,2.51
2017-12-03T05:00:22.542Z,2.46
2017-12-03T05:00:48.672Z,2.43
2017-12-03T05:01:14.821Z,2.47
2017-12-03T05:01:40.910Z,2.44
2017-12-03T05:02:07.028Z,2.46
2017-12-03T05:02:33.149Z,2.56
2017-12-03T05:02:59.270Z,2.61
2017-12-03T05:03:25.389Z,2.43
2017-12-03T05:03:51.509Z,2.44
2017-12-03T05:04:17.629Z,2.54
2017-12-03T05:04:43.747Z,2.56
2017-12-03T05:05:09.869Z,2.57
2017-12-03T05:05:35.994Z,2.56
2017-12-03T05:06:02.129Z,2.54
2017-12-03T05:06:28.256Z,2.62
2017-12-03T05:06:54.367Z,2.61
2017-12-03T05:07:20.489Z,2.57
2017-12-03T05:07:46.608Z,2.46
2017-12-03T05:08:12.726Z,2.47
2017-12-03T05:08:38.847Z,2.49
2017-12-03T05:09:04.968Z,2.56
2017-12-03T05:09:31.082Z,2.62
2017-12-03T05:09:57.207Z,2.54
2017-12-03T05:10:23.319Z,2.6
2017-12-03T05:10:49.437Z,2.56
2017-12-03T05:11:15.560Z,2.57
2017-12-03T05:11:41.689Z,2.64
2017-12-03T05:12:07.798Z,2.72
2017-12-03T05:12:33.917Z,2.64
2017-12-03T05:13:00.041Z,2.68
2017-12-03T05:13:26.155Z,2.54
2017-12-03T05:13:52.282Z,2.67
2017-12-03T05:14:18.405Z,2.67
2017-12-03T05:14:44.522Z,2.68
2017-12-03T05:15:10.634Z,2.54
2017-12-03T05:15:36.755Z,2.54
2017-12-03T05:16:02.876Z,2.62
2017-12-03T05:16:29.002Z,2.67
2017-12-03T05:16:55.123Z,2.53
2017-12-03T05:17:21.237Z,2.62
2017-12-03T05:17:47.358Z,2.62
2017-12-03T05:18:13.474Z,2.53
2017-12-03T05:18:39.592Z,2.57
2017-12-03T05:19:05.712Z,2.61
2017-12-03T05:19:31.831Z,2.65
2017-12-03T05:19:57.956Z,2.57
2017-12-03T05:20:24.072Z,2.49
2017-12-03T05:20:50.182Z,2.5
2017-12-03T05:21:16.307Z,2.53
2017-12-03T05:21:42.424Z,2.53
2017-12-03T05:22:08.551Z,2.51
2017-12-03T05:22:34.670Z,2.47
2017-12-03T05:23:00.790Z,2.5
2017-12-03T05:23:26.930Z,2.46
2017-12-03T05:23:53.071Z,2.53
2017-12-03T05:24:19.186Z,2.5
2017-12-03T05:24:45.299Z,2.61
2017-12-03T05:25:11.429Z,2.49
2017-12-03T05:25:37.547Z,2.49
2017-12-03T05:26:03.660Z,2.5
2017-12-03T05:26:29.778Z,2.44
2017-12-03T05:26:55.902Z,2.32
2017-12-03T05:27:22.017Z,2.28
2017-12-03T05:27:48.145Z,2.28
2017-12-03T05:28:14.262Z,2.38
2017-12-03T05:28:40.376Z,2.39
2017-12-03T05:29:06.496Z,2.33
2017-12-03T05:29:32.616Z,2.39
2017-12-03T05:29:58.733Z,2.38
2017-12-03T05:30:24.857Z,2.29
2017-12-03T05:30:50.971Z,2.36
2017-12-03T05:31:17.096Z,2.38
2017-12-03T05:31:43.217Z,2.43
2017-12-03T05:32:09.332Z,2.5
2017-12-03T05:32:35.456Z,2.5
2017-12-03T05:33:01.594Z,2.44
2017-12-03T05:33:27.707Z,2.39
2017-12-03T05:33:53.835Z,2.46
2017-12-03T05:34:19.990Z,2.44
2017-12-03T05:34:46.112Z,2.44
2017-12-03T05:35:12.233Z,2.46
2017-12-03T05:35:38.352Z,2.46
2017-12-03T05:36:04.473Z,2.38
2017-12-03T05:36:30.585Z,2.36
2017-12-03T05:36:56.706Z,2.39
2017-12-03T05:37:22.825Z,2.35
2017-12-03T05:37:48.968Z,2.35
2017-12-03T05:38:15.106Z,2.39
2017-12-03T05:38:41.230Z,2.39
2017-12-03T05:39:07.342Z,2.47
2017-12-03T05:39:33.461Z,2.44
2017-12-03T05:39:59.578Z,2.43
2017-12-03T05:40:25.703Z,2.36
2017-12-03T05:40:51.827Z,2.38
2017-12-03T05:41:17.946Z,2.46
2017-12-03T05:41:44.062Z,2.35
2017-12-03T05:42:10.183Z,2.35
2017-12-03T05:42:36.302Z,2.36
2017-12-03T05:43:02.425Z,2.38
2017-12-03T05:43:28.545Z,2.38
2017-12-03T05:43:54.664Z,2.42
2017-12-03T05:44:20.781Z,2.31
2017-12-03T05:44:46.919Z,2.31
2017-12-03T05:45:13.040Z,2.36
2017-12-03T05:45:39.186Z,2.39
2017-12-03T05:46:05.298Z,2.33
2017-12-03T05:46:31.452Z,2.43
2017-12-03T05:46:57.569Z,2.49
2017-12-03T05:47:23.689Z,2.46
2017-12-03T05:47:49.802Z,2.46
2017-12-03T05:48:15.948Z,2.44
2017-12-03T05:48:42.073Z,2.49